createdAt,value
2018-04-15T00:01:02.864Z,11.90
2018-04-15T00:03:31.157Z,11.90
2018-04-15T00:05:58.650Z,11.90
2018-04-15T00:08:26.090Z,11.90
2018-04-15T00:10:53.527Z,11.90
2018-04-15T00:13:21.803Z,11.80
2018-04-15T00:15:50.081Z,11.80
2018-04-15T00:18:18.357Z,11.80
2018-04-15T00:20:46.624Z,11.80
2018-04-15T00:23:14.896Z,11.80
2018-04-15T00:25:43.172Z,11.80
2018-04-15T00:28:11.448Z,11.70
2018-04-15T00:30:39.994Z,11.70
2018-04-15T00:33:08.254Z,11.70
2018-04-15T00:35:35.684Z,11.70
2018-04-15T00:38:03.947Z,11.70
2018-04-15T00:40:33.235Z,11.60
2018-04-15T00:43:00.705Z,11.60
2018-04-15T00:45:28.983Z,11.60
2018-04-15T00:47:57.272Z,11.60
2018-04-15T00:50:24.728Z,11.60
2018-04-15T00:52:53.000Z,11.60
2018-04-15T00:55:21.264Z,11.50
2018-04-15T00:57:49.541Z,11.50
2018-04-15T01:00:17.820Z,11.50
2018-04-15T01:02:46.107Z,11.50
2018-04-15T01:05:14.388Z,11.50
2018-04-15T01:07:41.819Z,11.50
2018-04-15T01:10:09.297Z,11.50
2018-04-15T01:12:37.575Z,11.50
2018-04-15T01:15:05.847Z,11.50
2018-04-15T01:17:34.133Z,11.50
2018-04-15T01:20:02.401Z,11.50
2018-04-15T01:22:30.672Z,11.50
2018-04-15T01:24:58.949Z,11.50
2018-04-15T01:27:27.229Z,11.50
2018-04-15T01:29:55.516Z,11.50
2018-04-15T01:32:22.980Z,11.50
2018-04-15T01:34:50.445Z,11.50
2018-04-15T01:37:17.885Z,11.50
2018-04-15T01:39:46.179Z,11.50
2018-04-15T01:42:13.623Z,11.50
2018-04-15T01:44:41.892Z,11.40
2018-04-15T01:47:10.159Z,11.40
2018-04-15T01:49:38.479Z,11.40
2018-04-15T01:52:05.933Z,11.40
2018-04-15T01:54:33.390Z,11.40
2018-04-15T01:57:00.827Z,11.40
2018-04-15T01:59:29.088Z,11.40
2018-04-15T02:01:57.360Z,11.40
2018-04-15T02:04:25.639Z,11.40
2018-04-15T02:06:53.914Z,11.40
2018-04-15T02:09:21.462Z,11.40
2018-04-15T02:11:48.880Z,11.40
2018-04-15T02:14:16.332Z,11.40
2018-04-15T02:16:43.777Z,11.40
2018-04-15T02:19:11.257Z,11.40
2018-04-15T02:21:38.708Z,11.40
2018-04-15T02:24:06.180Z,11.40
2018-04-15T02:26:33.619Z,11.40
2018-04-15T02:29:01.072Z,11.40
2018-04-15T02:31:29.532Z,11.40
2018-04-15T02:33:56.976Z,11.40
2018-04-15T02:36:25.261Z,11.30
2018-04-15T02:38:53.540Z,11.30
2018-04-15T02:41:21.811Z,11.30
2018-04-15T02:43:50.071Z,11.30
2018-04-15T02:46:17.532Z,11.30
2018-04-15T02:48:45.811Z,11.30
2018-04-15T02:51:13.274Z,11.30
2018-04-15T02:53:41.546Z,11.30
2018-04-15T02:56:09.021Z,11.30
2018-04-15T02:58:36.466Z,11.30
2018-04-15T03:01:04.760Z,11.30
2018-04-15T03:03:33.017Z,11.20
2018-04-15T03:06:00.488Z,11.30
2018-04-15T03:08:28.751Z,11.20
2018-04-15T03:10:56.216Z,11.20
2018-04-15T03:13:23.660Z,11.20
2018-04-15T03:15:51.952Z,11.20
2018-04-15T03:18:19.403Z,11.20
2018-04-15T03:20:47.692Z,11.20
2018-04-15T03:23:15.951Z,11.20
2018-04-15T03:25:43.425Z,11.20
2018-04-15T03:28:11.681Z,11.10
2018-04-15T03:30:39.149Z,11.10
2018-04-15T03:33:06.606Z,11.10
2018-04-15T03:35:34.061Z,11.10
2018-04-15T03:38:01.519Z,11.10
2018-04-15T03:40:29.013Z,11.10
2018-04-15T03:42:57.269Z,11.10
2018-04-15T03:45:24.748Z,11.10
2018-04-15T03:47:52.176Z,11.10
2018-04-15T03:50:19.620Z,11.10
2018-04-15T03:52:47.896Z,11.10
2018-04-15T03:55:15.368Z,11.00
2018-04-15T03:57:42.823Z,11.00
2018-04-15T04:00:10.288Z,11.00
2018-04-15T04:02:38.560Z,11.00
2018-04-15T04:05:07.113Z,11.00
2018-04-15T04:07:34.567Z,11.00
2018-04-15T04:10:02.019Z,11.00
2018-04-15T04:12:29.459Z,11.00
2018-04-15T04:14:56.915Z,11.00
2018-04-15T04:17:36.345Z,11.00
2018-04-15T04:20:17.479Z,11.00
2018-04-15T04:22:57.904Z,10.90
2018-04-15T04:25:37.170Z,10.90
2018-04-15T04:28:05.482Z,10.90
2018-04-15T04:30:32.928Z,10.90
2018-04-15T04:33:01.411Z,10.90
2018-04-15T04:35:29.877Z,10.90
2018-04-15T04:37:57.347Z,10.90
2018-04-15T04:40:26.885Z,10.90
2018-04-15T04:42:54.348Z,10.90
2018-04-15T04:45:26.888Z,10.90
2018-04-15T04:47:54.341Z,10.90
2018-04-15T04:50:22.624Z,10.80
2018-04-15T04:52:53.339Z,10.80
2018-04-15T04:55:21.621Z,10.80
2018-04-15T04:57:49.082Z,10.80
2018-04-15T05:00:17.351Z,10.80
2018-04-15T05:02:53.027Z,10.80
2018-04-15T05:05:26.294Z,10.80
2018-04-15T05:07:55.076Z,10.80
2018-04-15T05:10:22.975Z,10.80
2018-04-15T05:12:56.175Z,10.80
2018-04-15T05:15:28.497Z,10.80
2018-04-15T05:17:55.996Z,10.80
2018-04-15T05:20:24.829Z,10.80
2018-04-15T05:22:52.664Z,10.80
2018-04-15T05:25:20.600Z,10.70
2018-04-15T05:27:48.460Z,10.70
2018-04-15T05:30:16.740Z,10.70
2018-04-15T05:32:45.029Z,10.70
2018-04-15T05:35:12.746Z,10.60
2018-04-15T05:37:42.458Z,10.60
2018-04-15T05:42:46.348Z,10.60
2018-04-15T05:45:15.412Z,10.50
2018-04-15T05:47:45.778Z,10.50
2018-04-15T05:50:13.826Z,10.50
2018-04-15T05:52:42.670Z,10.50
2018-04-15T05:58:00.004Z,10.50
2018-04-15T06:03:24.302Z,10.50
2018-04-15T06:05:52.066Z,10.60
2018-04-15T06:08:21.811Z,10.70
2018-04-15T06:11:09.038Z,10.70
2018-04-15T06:13:39.287Z,10.90
2018-04-15T06:16:10.416Z,10.90
2018-04-15T06:18:39.357Z,11.00
2018-04-15T06:21:11.342Z,11.10
2018-04-15T06:23:40.568Z,11.20
2018-04-15T06:26:08.902Z,11.30
2018-04-15T06:31:17.175Z,11.40
2018-04-15T06:33:44.821Z,11.50
2018-04-15T06:36:23.717Z,11.50
2018-04-15T06:38:52.316Z,11.60
2018-04-15T06:41:21.632Z,11.80
2018-04-15T06:43:53.432Z,11.90
2018-04-15T06:46:21.957Z,11.90
2018-04-15T06:48:50.749Z,11.90
2018-04-15T06:51:31.823Z,12.00
2018-04-15T06:54:00.243Z,12.00
2018-04-15T06:56:31.965Z,12.10
2018-04-15T06:59:02.945Z,12.20
2018-04-15T07:01:34.799Z,12.40
2018-04-15T07:04:02.238Z,12.50
2018-04-15T07:09:25.658Z,12.70
2018-04-15T07:12:08.466Z,12.70
2018-04-15T07:14:48.469Z,12.80
2018-04-15T07:17:17.184Z,12.80
2018-04-15T07:19:45.809Z,12.90
2018-04-15T07:22:19.848Z,12.90
2018-04-15T07:24:48.182Z,12.90
2018-04-15T07:27:30.015Z,12.90
2018-04-15T07:32:33.965Z,13.20
2018-04-15T07:35:12.191Z,13.30
2018-04-15T07:37:42.494Z,13.30
2018-04-15T07:40:11.678Z,13.40
2018-04-15T07:42:48.304Z,13.50
2018-04-15T07:45:22.709Z,13.60
2018-04-15T07:47:50.580Z,13.60
2018-04-15T07:53:07.163Z,13.90
2018-04-15T07:56:03.304Z,13.90
2018-04-15T07:58:45.958Z,13.90
2018-04-15T08:01:23.982Z,14.10
2018-04-15T08:04:03.227Z,14.20
2018-04-15T08:09:57.904Z,14.40
2018-04-15T08:12:30.337Z,14.60
2018-04-15T08:17:40.009Z,14.70
2018-04-15T08:22:46.882Z,14.80
2018-04-15T08:25:19.425Z,14.90
2018-04-15T08:27:55.677Z,14.70
2018-04-15T08:30:28.807Z,15.10
2018-04-15T08:33:04.003Z,15.20
2018-04-15T08:35:40.240Z,15.30
2018-04-15T13:59:53.654Z,16.80
2018-04-15T14:02:24.419Z,16.90
2018-04-15T14:04:51.892Z,16.90
2018-04-15T14:07:19.882Z,16.90
2018-04-15T14:09:47.376Z,17.00
2018-04-15T14:12:15.709Z,17.00
2018-04-15T14:14:44.535Z,17.10
2018-04-15T14:17:12.021Z,17.10
2018-04-15T14:19:39.481Z,17.10
2018-04-15T14:22:06.955Z,17.10
2018-04-15T14:24:34.440Z,17.10
2018-04-15T14:27:03.857Z,17.10
2018-04-15T14:29:31.337Z,17.00
2018-04-15T14:32:04.137Z,16.90
2018-04-15T14:34:35.387Z,16.90
2018-04-15T14:37:09.299Z,16.80
2018-04-15T14:39:36.901Z,16.70
2018-04-15T14:42:21.244Z,16.70
2018-04-15T14:44:52.562Z,16.70
2018-04-15T14:47:24.265Z,16.60
2018-04-15T14:49:53.185Z,16.50
2018-04-15T14:52:22.556Z,16.50
2018-04-15T14:54:50.161Z,16.50
2018-04-15T14:57:17.648Z,16.50
2018-04-15T14:59:47.922Z,16.50
2018-04-15T15:02:16.529Z,16.50
2018-04-15T15:04:44.292Z,16.50
2018-04-15T15:07:12.682Z,16.50
2018-04-15T15:09:40.618Z,16.60
2018-04-15T15:12:08.473Z,16.60
2018-04-15T15:14:36.985Z,16.70
2018-04-15T15:17:04.472Z,16.70
2018-04-15T15:19:32.388Z,16.80
2018-04-15T15:22:01.352Z,16.80
2018-04-15T15:38:14.955Z,17.20
2018-04-15T15:40:43.058Z,17.30
2018-04-15T15:43:11.686Z,17.30
2018-04-15T15:45:39.169Z,17.30
2018-04-15T15:48:07.862Z,17.30
2018-04-15T15:50:36.653Z,17.30
2018-04-15T15:53:07.625Z,17.30
2018-04-15T15:55:37.057Z,17.30
2018-04-15T15:58:07.601Z,17.30
2018-04-15T16:00:37.880Z,17.50
2018-04-15T16:11:10.241Z,17.20
2018-04-15T16:13:44.490Z,17.10
2018-04-15T16:16:16.525Z,17.00
2018-04-15T16:21:42.316Z,16.90
2018-04-15T16:24:10.877Z,16.90
2018-04-15T16:26:39.330Z,16.90
2018-04-15T16:29:06.813Z,16.90
2018-04-15T16:31:34.284Z,16.80
2018-04-15T16:34:01.788Z,16.80
2018-04-15T16:36:30.154Z,16.80
2018-04-15T16:38:57.664Z,16.80
2018-04-15T16:41:25.137Z,16.80
2018-04-15T16:43:53.535Z,16.80
2018-04-15T16:46:23.482Z,16.70
2018-04-15T16:48:51.733Z,16.70
2018-04-15T16:51:24.169Z,16.70
2018-04-15T16:53:51.996Z,16.60
2018-04-15T16:56:32.580Z,16.60
2018-04-15T16:59:01.240Z,16.60
2018-04-15T17:01:28.733Z,16.60
2018-04-15T17:06:31.461Z,16.60
2018-04-15T17:09:03.461Z,16.50
2018-04-15T17:11:32.158Z,16.50
2018-04-15T17:14:00.615Z,16.50
2018-04-15T17:16:28.954Z,16.50
2018-04-15T17:18:56.816Z,16.50
2018-04-15T17:23:57.008Z,16.40
2018-04-15T17:26:26.148Z,16.40
2018-04-15T17:31:28.170Z,16.30
2018-04-15T17:34:04.064Z,16.30
2018-04-15T17:39:12.664Z,16.20
2018-04-15T17:41:42.651Z,16.50
2018-04-15T17:46:43.987Z,16.10
2018-04-15T17:49:12.430Z,16.10
2018-04-15T17:51:40.615Z,16.00
2018-04-15T17:54:08.519Z,16.00
2018-04-15T17:56:36.912Z,15.90
2018-04-15T18:01:41.098Z,15.50
2018-04-15T18:11:52.165Z,15.60
2018-04-15T22:29:03.701Z,12.10
